sensor_id;sensor_type;location;lat;lon;timestamp;P1;durP1;ratioP1;P2;durP2;ratioP2
36315;SDS011;22343;50.820;2.666;2022-11-27T00:01:37;13.53;;;7.60;;
36315;SDS011;22343;50.820;2.666;2022-11-27T00:04:22;11.30;;;7.90;;
36315;SDS011;22343;50.820;2.666;2022-11-27T00:07:06;13.77;;;7.73;;
36315;SDS011;22343;50.820;2.666;2022-11-27T00:09:52;14.20;;;7.83;;
36315;SDS011;22343;50.820;2.666;2022-11-27T00:12:37;12.27;;;7.47;;
36315;SDS011;22343;50.820;2.666;2022-11-27T00:15:23;12.07;;;6.90;;
36315;SDS011;22343;50.820;2.666;2022-11-27T00:18:08;11.17;;;6.77;;
36315;SDS011;22343;50.820;2.666;2022-11-27T00:20:53;8.97;;;6.00;;
36315;SDS011;22343;50.820;2.666;2022-11-27T00:23:38;12.93;;;7.83;;
36315;SDS011;22343;50.820;2.666;2022-11-27T00:26:23;12.00;;;7.20;;
36315;SDS011;22343;50.820;2.666;2022-11-27T00:29:09;12.73;;;6.77;;
36315;SDS011;22343;50.820;2.666;2022-11-27T00:31:54;14.00;;;7.30;;
36315;SDS011;22343;50.820;2.666;2022-11-27T00:34:39;10.97;;;7.07;;
36315;SDS011;22343;50.820;2.666;2022-11-27T00:37:26;17.33;;;7.43;;
36315;SDS011;22343;50.820;2.666;2022-11-27T00:40:10;12.10;;;6.60;;
36315;SDS011;22343;50.820;2.666;2022-11-27T00:42:55;14.10;;;7.07;;
36315;SDS011;22343;50.820;2.666;2022-11-27T00:45:39;12.50;;;6.50;;
36315;SDS011;22343;50.820;2.666;2022-11-27T00:48:24;14.40;;;6.53;;
36315;SDS011;22343;50.820;2.666;2022-11-27T00:51:09;13.13;;;6.40;;
36315;SDS011;22343;50.820;2.666;2022-11-27T00:53:57;12.63;;;6.17;;
36315;SDS011;22343;50.820;2.666;2022-11-27T00:56:42;14.00;;;6.37;;
36315;SDS011;22343;50.820;2.666;2022-11-27T00:59:27;11.43;;;5.77;;
36315;SDS011;22343;50.820;2.666;2022-11-27T01:02:13;16.20;;;6.17;;
36315;SDS011;22343;50.820;2.666;2022-11-27T01:04:58;10.10;;;5.73;;
36315;SDS011;22343;50.820;2.666;2022-11-27T01:07:45;11.00;;;5.70;;
36315;SDS011;22343;50.820;2.666;2022-11-27T01:10:31;10.80;;;5.53;;
36315;SDS011;22343;50.820;2.666;2022-11-27T01:13:17;10.03;;;4.63;;
36315;SDS011;22343;50.820;2.666;2022-11-27T01:16:10;9.30;;;5.07;;
36315;SDS011;22343;50.820;2.666;2022-11-27T01:18:56;12.13;;;5.30;;
36315;SDS011;22343;50.820;2.666;2022-11-27T01:21:43;10.07;;;5.07;;
36315;SDS011;22343;50.820;2.666;2022-11-27T01:24:29;8.07;;;4.83;;
36315;SDS011;22343;50.820;2.666;2022-11-27T01:27:13;10.50;;;4.93;;
36315;SDS011;22343;50.820;2.666;2022-11-27T01:29:57;10.43;;;5.37;;
36315;SDS011;22343;50.820;2.666;2022-11-27T01:32:43;13.03;;;4.77;;
36315;SDS011;22343;50.820;2.666;2022-11-27T01:35:28;10.80;;;5.10;;
36315;SDS011;22343;50.820;2.666;2022-11-27T01:38:14;9.13;;;4.70;;
36315;SDS011;22343;50.820;2.666;2022-11-27T01:40:59;9.90;;;4.37;;
36315;SDS011;22343;50.820;2.666;2022-11-27T01:44:41;12.00;;;5.23;;
36315;SDS011;22343;50.820;2.666;2022-11-27T01:47:10;6.30;;;4.30;;
36315;SDS011;22343;50.820;2.666;2022-11-27T01:49:59;11.73;;;5.03;;
36315;SDS011;22343;50.820;2.666;2022-11-27T01:52:53;10.27;;;5.10;;
36315;SDS011;22343;50.820;2.666;2022-11-27T01:55:47;8.93;;;4.40;;
36315;SDS011;22343;50.820;2.666;2022-11-27T01:58:33;11.77;;;4.97;;
36315;SDS011;22343;50.820;2.666;2022-11-27T02:01:19;11.97;;;5.10;;
36315;SDS011;22343;50.820;2.666;2022-11-27T02:04:08;9.67;;;4.80;;
36315;SDS011;22343;50.820;2.666;2022-11-27T02:06:53;10.93;;;4.83;;
36315;SDS011;22343;50.820;2.666;2022-11-27T02:09:39;11.33;;;5.70;;
36315;SDS011;22343;50.820;2.666;2022-11-27T02:12:25;10.67;;;4.83;;
36315;SDS011;22343;50.820;2.666;2022-11-27T02:15:13;8.60;;;5.00;;
36315;SDS011;22343;50.820;2.666;2022-11-27T02:21:24;8.40;;;5.50;;
36315;SDS011;22343;50.820;2.666;2022-11-27T02:24:43;10.70;;;5.00;;
36315;SDS011;22343;50.820;2.666;2022-11-27T02:44:22;10.17;;;5.37;;
36315;SDS011;22343;50.820;2.666;2022-11-27T02:47:07;11.80;;;5.87;;
36315;SDS011;22343;50.820;2.666;2022-11-27T02:49:51;11.87;;;5.60;;
36315;SDS011;22343;50.820;2.666;2022-11-27T02:52:40;10.90;;;5.43;;
36315;SDS011;22343;50.820;2.666;2022-11-27T02:55:26;12.63;;;5.40;;
36315;SDS011;22343;50.820;2.666;2022-11-27T02:58:16;14.03;;;5.77;;
36315;SDS011;22343;50.820;2.666;2022-11-27T03:01:04;9.83;;;6.00;;
36315;SDS011;22343;50.820;2.666;2022-11-27T03:03:53;14.30;;;5.97;;
36315;SDS011;22343;50.820;2.666;2022-11-27T03:06:43;9.03;;;5.37;;
36315;SDS011;22343;50.820;2.666;2022-11-27T03:09:38;13.33;;;5.60;;
36315;SDS011;22343;50.820;2.666;2022-11-27T03:12:24;8.80;;;4.80;;
36315;SDS011;22343;50.820;2.666;2022-11-27T03:15:10;9.77;;;5.63;;
36315;SDS011;22343;50.820;2.666;2022-11-27T03:17:59;11.73;;;5.70;;
36315;SDS011;22343;50.820;2.666;2022-11-27T03:20:49;9.77;;;5.60;;
36315;SDS011;22343;50.820;2.666;2022-11-27T03:23:36;12.33;;;5.60;;
36315;SDS011;22343;50.820;2.666;2022-11-27T03:26:22;12.80;;;5.77;;
36315;SDS011;22343;50.820;2.666;2022-11-27T03:29:10;9.53;;;5.93;;
36315;SDS011;22343;50.820;2.666;2022-11-27T03:31:57;11.03;;;5.03;;
36315;SDS011;22343;50.820;2.666;2022-11-27T03:34:42;17.97;;;6.00;;
36315;SDS011;22343;50.820;2.666;2022-11-27T03:37:28;13.33;;;5.77;;
36315;SDS011;22343;50.820;2.666;2022-11-27T03:40:13;13.47;;;5.57;;
36315;SDS011;22343;50.820;2.666;2022-11-27T03:43:00;10.73;;;5.60;;
36315;SDS011;22343;50.820;2.666;2022-11-27T03:45:51;11.53;;;5.57;;
36315;SDS011;22343;50.820;2.666;2022-11-27T03:49:03;10.67;;;5.20;;
36315;SDS011;22343;50.820;2.666;2022-11-27T03:52:14;9.63;;;5.70;;
36315;SDS011;22343;50.820;2.666;2022-11-27T03:55:22;10.60;;;5.80;;
36315;SDS011;22343;50.820;2.666;2022-11-27T03:58:11;9.70;;;5.03;;
36315;SDS011;22343;50.820;2.666;2022-11-27T04:01:07;9.67;;;5.87;;
36315;SDS011;22343;50.820;2.666;2022-11-27T04:03:54;9.97;;;5.23;;
36315;SDS011;22343;50.820;2.666;2022-11-27T04:06:38;14.27;;;5.37;;
36315;SDS011;22343;50.820;2.666;2022-11-27T04:09:24;12.90;;;5.70;;
36315;SDS011;22343;50.820;2.666;2022-11-27T04:12:08;10.00;;;5.17;;
36315;SDS011;22343;50.820;2.666;2022-11-27T04:14:53;13.03;;;5.60;;
36315;SDS011;22343;50.820;2.666;2022-11-27T04:17:38;10.67;;;6.13;;
36315;SDS011;22343;50.820;2.666;2022-11-27T04:20:23;14.97;;;5.70;;
36315;SDS011;22343;50.820;2.666;2022-11-27T04:23:07;11.07;;;5.70;;
36315;SDS011;22343;50.820;2.666;2022-11-27T04:25:54;10.83;;;5.50;;
36315;SDS011;22343;50.820;2.666;2022-11-27T04:28:39;9.50;;;5.07;;
36315;SDS011;22343;50.820;2.666;2022-11-27T04:31:25;10.63;;;6.00;;
36315;SDS011;22343;50.820;2.666;2022-11-27T04:34:10;8.57;;;5.37;;
36315;SDS011;22343;50.820;2.666;2022-11-27T04:36:55;8.37;;;5.33;;
36315;SDS011;22343;50.820;2.666;2022-11-27T04:39:40;10.43;;;5.90;;
36315;SDS011;22343;50.820;2.666;2022-11-27T04:42:26;9.53;;;5.50;;
36315;SDS011;22343;50.820;2.666;2022-11-27T04:45:10;11.13;;;6.00;;
36315;SDS011;22343;50.820;2.666;2022-11-27T04:47:56;8.07;;;5.10;;
36315;SDS011;22343;50.820;2.666;2022-11-27T04:50:41;11.50;;;5.27;;
36315;SDS011;22343;50.820;2.666;2022-11-27T04:53:27;11.60;;;5.37;;
36315;SDS011;22343;50.820;2.666;2022-11-27T04:56:12;8.87;;;5.27;;
36315;SDS011;22343;50.820;2.666;2022-11-27T04:58:56;8.57;;;5.83;;
36315;SDS011;22343;50.820;2.666;2022-11-27T05:01:43;9.93;;;5.50;;
36315;SDS011;22343;50.820;2.666;2022-11-27T05:04:27;12.33;;;5.47;;
36315;SDS011;22343;50.820;2.666;2022-11-27T05:07:12;11.17;;;5.87;;
36315;SDS011;22343;50.820;2.666;2022-11-27T05:09:57;12.63;;;5.67;;
36315;SDS011;22343;50.820;2.666;2022-11-27T05:12:42;9.60;;;5.50;;
36315;SDS011;22343;50.820;2.666;2022-11-27T05:15:26;11.87;;;6.10;;
36315;SDS011;22343;50.820;2.666;2022-11-27T05:18:11;10.60;;;5.43;;
36315;SDS011;22343;50.820;2.666;2022-11-27T05:20:59;8.50;;;5.10;;
36315;SDS011;22343;50.820;2.666;2022-11-27T05:23:47;8.00;;;5.10;;
36315;SDS011;22343;50.820;2.666;2022-11-27T05:26:31;8.23;;;5.20;;
36315;SDS011;22343;50.820;2.666;2022-11-27T05:29:16;8.03;;;5.20;;
36315;SDS011;22343;50.820;2.666;2022-11-27T05:32:02;10.17;;;5.17;;
36315;SDS011;22343;50.820;2.666;2022-11-27T05:34:46;8.27;;;5.23;;
36315;SDS011;22343;50.820;2.666;2022-11-27T05:37:33;10.57;;;4.97;;
36315;SDS011;22343;50.820;2.666;2022-11-27T05:40:18;11.10;;;5.50;;
36315;SDS011;22343;50.820;2.666;2022-11-27T05:43:04;9.17;;;5.23;;
36315;SDS011;22343;50.820;2.666;2022-11-27T05:45:48;9.03;;;5.20;;
36315;SDS011;22343;50.820;2.666;2022-11-27T05:48:35;8.97;;;4.83;;
36315;SDS011;22343;50.820;2.666;2022-11-27T05:51:19;8.83;;;5.03;;
36315;SDS011;22343;50.820;2.666;2022-11-27T05:54:05;10.47;;;5.70;;
36315;SDS011;22343;50.820;2.666;2022-11-27T05:56:50;6.53;;;4.27;;
36315;SDS011;22343;50.820;2.666;2022-11-27T05:59:35;8.10;;;5.17;;
36315;SDS011;22343;50.820;2.666;2022-11-27T06:02:20;9.40;;;4.40;;
36315;SDS011;22343;50.820;2.666;2022-11-27T06:05:06;9.43;;;5.10;;
36315;SDS011;22343;50.820;2.666;2022-11-27T06:07:52;10.90;;;5.17;;
36315;SDS011;22343;50.820;2.666;2022-11-27T06:10:40;10.27;;;4.77;;
36315;SDS011;22343;50.820;2.666;2022-11-27T06:13:24;7.33;;;4.97;;
36315;SDS011;22343;50.820;2.666;2022-11-27T06:16:18;9.67;;;5.00;;
36315;SDS011;22343;50.820;2.666;2022-11-27T06:19:06;10.37;;;5.10;;
36315;SDS011;22343;50.820;2.666;2022-11-27T06:21:51;10.53;;;4.73;;
36315;SDS011;22343;50.820;2.666;2022-11-27T06:24:35;9.50;;;4.70;;
36315;SDS011;22343;50.820;2.666;2022-11-27T06:27:20;5.70;;;4.13;;
36315;SDS011;22343;50.820;2.666;2022-11-27T06:30:04;11.40;;;5.67;;
36315;SDS011;22343;50.820;2.666;2022-11-27T06:32:51;6.10;;;3.80;;
36315;SDS011;22343;50.820;2.666;2022-11-27T06:35:36;7.50;;;5.20;;
36315;SDS011;22343;50.820;2.666;2022-11-27T06:38:21;9.97;;;4.87;;
36315;SDS011;22343;50.820;2.666;2022-11-27T06:41:08;8.33;;;4.53;;
36315;SDS011;22343;50.820;2.666;2022-11-27T06:43:57;8.33;;;4.70;;
36315;SDS011;22343;50.820;2.666;2022-11-27T06:46:42;7.03;;;4.77;;
36315;SDS011;22343;50.820;2.666;2022-11-27T06:49:27;8.30;;;5.07;;
36315;SDS011;22343;50.820;2.666;2022-11-27T06:52:12;10.37;;;4.73;;
36315;SDS011;22343;50.820;2.666;2022-11-27T06:54:58;8.73;;;5.00;;
36315;SDS011;22343;50.820;2.666;2022-11-27T06:57:43;10.00;;;4.83;;
36315;SDS011;22343;50.820;2.666;2022-11-27T07:00:29;7.50;;;4.90;;
36315;SDS011;22343;50.820;2.666;2022-11-27T07:03:14;8.60;;;5.00;;
36315;SDS011;22343;50.820;2.666;2022-11-27T07:05:59;8.13;;;5.03;;
36315;SDS011;22343;50.820;2.666;2022-11-27T07:08:45;7.27;;;4.93;;
36315;SDS011;22343;50.820;2.666;2022-11-27T07:11:31;8.00;;;4.93;;
36315;SDS011;22343;50.820;2.666;2022-11-27T07:14:18;10.10;;;4.97;;
36315;SDS011;22343;50.820;2.666;2022-11-27T07:17:02;9.70;;;4.93;;
36315;SDS011;22343;50.820;2.666;2022-11-27T07:19:48;8.83;;;5.23;;
36315;SDS011;22343;50.820;2.666;2022-11-27T07:22:34;8.60;;;4.47;;
36315;SDS011;22343;50.820;2.666;2022-11-27T07:25:20;7.30;;;4.90;;
36315;SDS011;22343;50.820;2.666;2022-11-27T07:28:05;11.43;;;5.27;;
36315;SDS011;22343;50.820;2.666;2022-11-27T07:30:54;7.87;;;4.50;;
36315;SDS011;22343;50.820;2.666;2022-11-27T07:33:41;10.57;;;4.60;;
36315;SDS011;22343;50.820;2.666;2022-11-27T07:36:29;7.20;;;5.20;;
36315;SDS011;22343;50.820;2.666;2022-11-27T07:39:15;9.10;;;4.63;;
36315;SDS011;22343;50.820;2.666;2022-11-27T07:42:01;6.97;;;4.50;;
36315;SDS011;22343;50.820;2.666;2022-11-27T07:44:45;8.30;;;4.77;;
36315;SDS011;22343;50.820;2.666;2022-11-27T07:47:29;9.33;;;5.07;;
36315;SDS011;22343;50.820;2.666;2022-11-27T07:50:15;8.73;;;4.67;;
36315;SDS011;22343;50.820;2.666;2022-11-27T07:53:01;8.47;;;4.97;;
36315;SDS011;22343;50.820;2.666;2022-11-27T07:55:47;7.43;;;4.97;;
36315;SDS011;22343;50.820;2.666;2022-11-27T07:58:32;9.73;;;5.13;;
36315;SDS011;22343;50.820;2.666;2022-11-27T08:01:18;8.67;;;5.07;;
36315;SDS011;22343;50.820;2.666;2022-11-27T08:04:03;8.67;;;4.80;;
36315;SDS011;22343;50.820;2.666;2022-11-27T08:06:47;6.57;;;4.30;;
36315;SDS011;22343;50.820;2.666;2022-11-27T08:09:32;7.80;;;4.90;;
36315;SDS011;22343;50.820;2.666;2022-11-27T08:12:17;8.57;;;5.00;;
36315;SDS011;22343;50.820;2.666;2022-11-27T08:15:01;9.67;;;4.57;;
36315;SDS011;22343;50.820;2.666;2022-11-27T08:17:49;10.20;;;4.80;;
36315;SDS011;22343;50.820;2.666;2022-11-27T08:20:35;7.63;;;4.37;;
36315;SDS011;22343;50.820;2.666;2022-11-27T08:23:21;8.33;;;4.70;;
36315;SDS011;22343;50.820;2.666;2022-11-27T08:26:06;7.73;;;4.43;;
36315;SDS011;22343;50.820;2.666;2022-11-27T08:28:52;6.50;;;4.67;;
36315;SDS011;22343;50.820;2.666;2022-11-27T08:31:36;9.13;;;4.80;;
36315;SDS011;22343;50.820;2.666;2022-11-27T08:34:22;7.33;;;4.63;;
36315;SDS011;22343;50.820;2.666;2022-11-27T08:37:06;7.07;;;4.57;;
36315;SDS011;22343;50.820;2.666;2022-11-27T08:39:52;7.90;;;4.63;;
36315;SDS011;22343;50.820;2.666;2022-11-27T08:42:38;8.77;;;4.80;;
36315;SDS011;22343;50.820;2.666;2022-11-27T08:45:25;8.77;;;4.90;;
36315;SDS011;22343;50.820;2.666;2022-11-27T08:48:11;6.90;;;4.63;;
36315;SDS011;22343;50.820;2.666;2022-11-27T08:50:57;9.70;;;4.37;;
36315;SDS011;22343;50.820;2.666;2022-11-27T08:53:43;6.60;;;4.50;;
36315;SDS011;22343;50.820;2.666;2022-11-27T08:56:28;10.40;;;4.50;;
36315;SDS011;22343;50.820;2.666;2022-11-27T08:59:14;6.80;;;5.00;;
36315;SDS011;22343;50.820;2.666;2022-11-27T09:01:58;7.50;;;4.90;;
36315;SDS011;22343;50.820;2.666;2022-11-27T09:04:42;8.50;;;4.90;;
36315;SDS011;22343;50.820;2.666;2022-11-27T09:07:28;8.23;;;4.77;;
36315;SDS011;22343;50.820;2.666;2022-11-27T09:10:13;6.10;;;4.80;;
36315;SDS011;22343;50.820;2.666;2022-11-27T09:12:59;6.53;;;4.77;;
36315;SDS011;22343;50.820;2.666;2022-11-27T09:15:45;7.93;;;4.53;;
36315;SDS011;22343;50.820;2.666;2022-11-27T09:18:30;9.30;;;5.20;;
36315;SDS011;22343;50.820;2.666;2022-11-27T09:21:15;7.77;;;4.73;;
36315;SDS011;22343;50.820;2.666;2022-11-27T09:24:03;7.43;;;4.70;;
36315;SDS011;22343;50.820;2.666;2022-11-27T09:26:49;6.80;;;4.67;;
36315;SDS011;22343;50.820;2.666;2022-11-27T09:29:39;9.37;;;5.53;;
36315;SDS011;22343;50.820;2.666;2022-11-27T09:32:25;7.67;;;5.23;;
36315;SDS011;22343;50.820;2.666;2022-11-27T09:35:10;7.27;;;4.83;;
36315;SDS011;22343;50.820;2.666;2022-11-27T09:37:59;8.53;;;5.17;;
36315;SDS011;22343;50.820;2.666;2022-11-27T09:40:44;8.13;;;5.47;;
36315;SDS011;22343;50.820;2.666;2022-11-27T09:43:34;6.60;;;4.53;;
36315;SDS011;22343;50.820;2.666;2022-11-27T09:46:23;7.17;;;5.30;;
36315;SDS011;22343;50.820;2.666;2022-11-27T09:49:13;8.93;;;5.20;;
36315;SDS011;22343;50.820;2.666;2022-11-27T10:01:31;7.03;;;4.87;;
36315;SDS011;22343;50.820;2.666;2022-11-27T10:04:17;10.07;;;5.53;;
36315;SDS011;22343;50.820;2.666;2022-11-27T10:10:39;7.70;;;5.57;;
36315;SDS011;22343;50.820;2.666;2022-11-27T10:25:38;6.00;;;5.20;;
36315;SDS011;22343;50.820;2.666;2022-11-27T10:28:30;8.33;;;5.47;;
36315;SDS011;22343;50.820;2.666;2022-11-27T10:34:35;8.20;;;5.33;;
36315;SDS011;22343;50.820;2.666;2022-11-27T10:37:42;6.07;;;4.87;;
36315;SDS011;22343;50.820;2.666;2022-11-27T10:40:56;7.63;;;5.77;;
36315;SDS011;22343;50.820;2.666;2022-11-27T10:43:58;5.80;;;4.80;;
36315;SDS011;22343;50.820;2.666;2022-11-27T10:47:06;6.77;;;5.37;;
36315;SDS011;22343;50.820;2.666;2022-11-27T10:49:52;7.50;;;5.43;;
36315;SDS011;22343;50.820;2.666;2022-11-27T10:52:42;7.93;;;5.53;;
36315;SDS011;22343;50.820;2.666;2022-11-27T11:01:42;8.03;;;5.83;;
36315;SDS011;22343;50.820;2.666;2022-11-27T11:04:32;7.63;;;5.50;;
36315;SDS011;22343;50.820;2.666;2022-11-27T11:07:22;7.57;;;5.90;;
36315;SDS011;22343;50.820;2.666;2022-11-27T11:10:24;7.40;;;5.57;;
36315;SDS011;22343;50.820;2.666;2022-11-27T11:15:56;9.33;;;5.97;;
36315;SDS011;22343;50.820;2.666;2022-11-27T11:18:51;10.70;;;6.20;;
36315;SDS011;22343;50.820;2.666;2022-11-27T11:21:38;7.83;;;6.03;;
36315;SDS011;22343;50.820;2.666;2022-11-27T11:24:30;9.37;;;6.13;;
36315;SDS011;22343;50.820;2.666;2022-11-27T11:27:35;10.40;;;6.60;;
36315;SDS011;22343;50.820;2.666;2022-11-27T11:30:25;8.90;;;7.10;;
36315;SDS011;22343;50.820;2.666;2022-11-27T11:33:13;8.37;;;6.27;;
36315;SDS011;22343;50.820;2.666;2022-11-27T11:36:00;7.33;;;6.13;;
36315;SDS011;22343;50.820;2.666;2022-11-27T11:38:53;8.37;;;5.70;;
36315;SDS011;22343;50.820;2.666;2022-11-27T11:41:39;7.40;;;6.07;;
36315;SDS011;22343;50.820;2.666;2022-11-27T11:44:36;7.10;;;5.87;;
36315;SDS011;22343;50.820;2.666;2022-11-27T11:47:22;6.93;;;5.50;;
36315;SDS011;22343;50.820;2.666;2022-11-27T11:50:11;6.37;;;5.67;;
36315;SDS011;22343;50.820;2.666;2022-11-27T11:56:04;7.87;;;5.20;;
36315;SDS011;22343;50.820;2.666;2022-11-27T11:59:00;7.80;;;5.60;;
36315;SDS011;22343;50.820;2.666;2022-11-27T12:02:15;6.70;;;4.80;;
36315;SDS011;22343;50.820;2.666;2022-11-27T12:08:48;5.87;;;4.50;;
36315;SDS011;22343;50.820;2.666;2022-11-27T12:15:20;6.30;;;4.53;;
36315;SDS011;22343;50.820;2.666;2022-11-27T12:21:51;6.37;;;5.03;;
36315;SDS011;22343;50.820;2.666;2022-11-27T12:34:01;6.97;;;5.67;;
36315;SDS011;22343;50.820;2.666;2022-11-27T12:43:24;9.07;;;5.60;;
36315;SDS011;22343;50.820;2.666;2022-11-27T12:49:04;9.67;;;7.90;;
36315;SDS011;22343;50.820;2.666;2022-11-27T12:55:16;10.57;;;7.97;;
36315;SDS011;22343;50.820;2.666;2022-11-27T12:58:04;11.17;;;8.07;;
36315;SDS011;22343;50.820;2.666;2022-11-27T13:00:54;11.97;;;9.73;;
36315;SDS011;22343;50.820;2.666;2022-11-27T13:04:09;11.67;;;8.83;;
36315;SDS011;22343;50.820;2.666;2022-11-27T13:07:17;12.33;;;9.03;;
36315;SDS011;22343;50.820;2.666;2022-11-27T13:13:10;9.03;;;7.00;;
36315;SDS011;22343;50.820;2.666;2022-11-27T13:15:56;12.03;;;8.33;;
36315;SDS011;22343;50.820;2.666;2022-11-27T13:18:51;13.23;;;10.30;;
36315;SDS011;22343;50.820;2.666;2022-11-27T13:21:45;10.30;;;7.93;;
36315;SDS011;22343;50.820;2.666;2022-11-27T13:24:31;15.57;;;10.67;;
36315;SDS011;22343;50.820;2.666;2022-11-27T13:27:17;16.23;;;10.67;;
36315;SDS011;22343;50.820;2.666;2022-11-27T13:30:04;13.73;;;10.07;;
36315;SDS011;22343;50.820;2.666;2022-11-27T13:32:54;15.67;;;11.93;;
36315;SDS011;22343;50.820;2.666;2022-11-27T13:35:41;10.97;;;8.60;;
36315;SDS011;22343;50.820;2.666;2022-11-27T13:38:27;13.20;;;9.33;;
36315;SDS011;22343;50.820;2.666;2022-11-27T13:41:29;12.47;;;9.27;;
36315;SDS011;22343;50.820;2.666;2022-11-27T13:44:34;8.97;;;7.40;;
36315;SDS011;22343;50.820;2.666;2022-11-27T13:47:21;11.80;;;9.27;;
36315;SDS011;22343;50.820;2.666;2022-11-27T13:50:14;9.97;;;8.37;;
36315;SDS011;22343;50.820;2.666;2022-11-27T13:53:04;15.40;;;12.37;;
36315;SDS011;22343;50.820;2.666;2022-11-27T13:55:53;15.23;;;11.67;;
36315;SDS011;22343;50.820;2.666;2022-11-27T13:58:41;11.97;;;9.97;;
36315;SDS011;22343;50.820;2.666;2022-11-27T14:01:26;11.97;;;10.33;;
36315;SDS011;22343;50.820;2.666;2022-11-27T14:04:11;10.87;;;9.50;;
36315;SDS011;22343;50.820;2.666;2022-11-27T14:10:04;8.60;;;6.83;;
36315;SDS011;22343;50.820;2.666;2022-11-27T14:13:02;8.83;;;6.57;;
36315;SDS011;22343;50.820;2.666;2022-11-27T14:15:57;8.60;;;6.53;;
36315;SDS011;22343;50.820;2.666;2022-11-27T14:18:50;9.23;;;6.53;;
36315;SDS011;22343;50.820;2.666;2022-11-27T14:21:40;9.30;;;6.43;;
36315;SDS011;22343;50.820;2.666;2022-11-27T14:27:37;8.50;;;7.40;;
36315;SDS011;22343;50.820;2.666;2022-11-27T14:30:24;8.40;;;6.80;;
36315;SDS011;22343;50.820;2.666;2022-11-27T14:33:24;9.83;;;7.10;;
36315;SDS011;22343;50.820;2.666;2022-11-27T14:36:33;8.27;;;6.97;;
36315;SDS011;22343;50.820;2.666;2022-11-27T14:39:29;8.57;;;7.00;;
36315;SDS011;22343;50.820;2.666;2022-11-27T14:42:20;7.50;;;6.60;;
36315;SDS011;22343;50.820;2.666;2022-11-27T14:48:11;7.40;;;5.90;;
36315;SDS011;22343;50.820;2.666;2022-11-27T14:51:02;10.23;;;6.80;;
36315;SDS011;22343;50.820;2.666;2022-11-27T14:53:49;8.63;;;6.63;;
36315;SDS011;22343;50.820;2.666;2022-11-27T14:56:41;8.53;;;6.47;;
36315;SDS011;22343;50.820;2.666;2022-11-27T14:59:26;9.20;;;7.23;;
36315;SDS011;22343;50.820;2.666;2022-11-27T15:02:16;7.83;;;6.70;;
36315;SDS011;22343;50.820;2.666;2022-11-27T15:05:04;9.37;;;6.63;;
36315;SDS011;22343;50.820;2.666;2022-11-27T15:07:51;8.90;;;6.43;;
36315;SDS011;22343;50.820;2.666;2022-11-27T15:10:40;7.20;;;5.73;;
36315;SDS011;22343;50.820;2.666;2022-11-27T15:13:28;8.80;;;6.20;;
36315;SDS011;22343;50.820;2.666;2022-11-27T15:16:15;19.30;;;12.60;;
36315;SDS011;22343;50.820;2.666;2022-11-27T15:19:02;21.10;;;15.10;;
36315;SDS011;22343;50.820;2.666;2022-11-27T15:21:48;28.37;;;17.47;;
36315;SDS011;22343;50.820;2.666;2022-11-27T15:24:34;17.50;;;12.03;;
36315;SDS011;22343;50.820;2.666;2022-11-27T15:27:20;13.47;;;9.27;;
36315;SDS011;22343;50.820;2.666;2022-11-27T15:30:12;9.40;;;7.90;;
36315;SDS011;22343;50.820;2.666;2022-11-27T15:33:01;13.07;;;10.87;;
36315;SDS011;22343;50.820;2.666;2022-11-27T15:35:45;12.83;;;10.40;;
36315;SDS011;22343;50.820;2.666;2022-11-27T15:38:31;9.67;;;7.47;;
36315;SDS011;22343;50.820;2.666;2022-11-27T15:41:17;9.67;;;8.03;;
36315;SDS011;22343;50.820;2.666;2022-11-27T15:44:07;17.17;;;12.70;;
36315;SDS011;22343;50.820;2.666;2022-11-27T15:46:53;15.33;;;12.27;;
36315;SDS011;22343;50.820;2.666;2022-11-27T15:49:39;12.07;;;9.87;;
36315;SDS011;22343;50.820;2.666;2022-11-27T15:52:23;13.97;;;10.37;;
36315;SDS011;22343;50.820;2.666;2022-11-27T15:55:12;11.43;;;8.77;;
36315;SDS011;22343;50.820;2.666;2022-11-27T15:57:58;12.03;;;8.93;;
36315;SDS011;22343;50.820;2.666;2022-11-27T16:00:44;10.20;;;9.03;;
36315;SDS011;22343;50.820;2.666;2022-11-27T16:03:30;8.63;;;7.20;;
36315;SDS011;22343;50.820;2.666;2022-11-27T16:06:14;8.73;;;6.53;;
36315;SDS011;22343;50.820;2.666;2022-11-27T16:08:59;9.53;;;8.10;;
36315;SDS011;22343;50.820;2.666;2022-11-27T16:11:45;8.97;;;7.93;;
36315;SDS011;22343;50.820;2.666;2022-11-27T16:14:31;9.13;;;7.47;;
36315;SDS011;22343;50.820;2.666;2022-11-27T16:17:16;10.83;;;8.30;;
36315;SDS011;22343;50.820;2.666;2022-11-27T16:20:01;8.00;;;7.20;;
36315;SDS011;22343;50.820;2.666;2022-11-27T16:22:45;12.90;;;11.50;;
36315;SDS011;22343;50.820;2.666;2022-11-27T16:25:30;9.67;;;6.80;;
36315;SDS011;22343;50.820;2.666;2022-11-27T16:28:16;9.67;;;8.13;;
36315;SDS011;22343;50.820;2.666;2022-11-27T16:31:02;9.20;;;8.20;;
36315;SDS011;22343;50.820;2.666;2022-11-27T16:33:57;10.43;;;8.83;;
36315;SDS011;22343;50.820;2.666;2022-11-27T16:36:44;11.27;;;9.03;;
36315;SDS011;22343;50.820;2.666;2022-11-27T16:39:30;12.00;;;9.63;;
36315;SDS011;22343;50.820;2.666;2022-11-27T16:42:16;13.90;;;9.80;;
36315;SDS011;22343;50.820;2.666;2022-11-27T16:45:01;12.00;;;9.03;;
36315;SDS011;22343;50.820;2.666;2022-11-27T16:47:45;10.90;;;9.33;;
36315;SDS011;22343;50.820;2.666;2022-11-27T16:50:31;11.20;;;10.00;;
36315;SDS011;22343;50.820;2.666;2022-11-27T16:53:16;11.50;;;9.63;;
36315;SDS011;22343;50.820;2.666;2022-11-27T16:56:01;13.67;;;10.00;;
36315;SDS011;22343;50.820;2.666;2022-11-27T16:58:47;12.20;;;8.70;;
36315;SDS011;22343;50.820;2.666;2022-11-27T17:01:33;11.43;;;8.73;;
36315;SDS011;22343;50.820;2.666;2022-11-27T17:04:20;10.30;;;8.43;;
36315;SDS011;22343;50.820;2.666;2022-11-27T17:07:06;11.53;;;8.33;;
36315;SDS011;22343;50.820;2.666;2022-11-27T17:09:51;11.63;;;8.30;;
36315;SDS011;22343;50.820;2.666;2022-11-27T17:12:37;10.43;;;8.17;;
36315;SDS011;22343;50.820;2.666;2022-11-27T17:15:21;10.00;;;7.87;;
36315;SDS011;22343;50.820;2.666;2022-11-27T17:18:07;11.27;;;7.80;;
36315;SDS011;22343;50.820;2.666;2022-11-27T17:20:52;11.83;;;8.70;;
36315;SDS011;22343;50.820;2.666;2022-11-27T17:23:38;11.20;;;8.57;;
36315;SDS011;22343;50.820;2.666;2022-11-27T17:26:27;11.37;;;9.17;;
36315;SDS011;22343;50.820;2.666;2022-11-27T17:29:15;11.07;;;8.13;;
36315;SDS011;22343;50.820;2.666;2022-11-27T17:32:02;11.70;;;8.20;;
36315;SDS011;22343;50.820;2.666;2022-11-27T17:34:47;9.80;;;7.77;;
36315;SDS011;22343;50.820;2.666;2022-11-27T17:37:33;9.60;;;7.70;;
36315;SDS011;22343;50.820;2.666;2022-11-27T17:40:18;9.43;;;8.10;;
36315;SDS011;22343;50.820;2.666;2022-11-27T17:43:03;9.80;;;7.67;;
36315;SDS011;22343;50.820;2.666;2022-11-27T17:45:48;9.60;;;7.33;;
36315;SDS011;22343;50.820;2.666;2022-11-27T17:48:33;9.57;;;7.37;;
36315;SDS011;22343;50.820;2.666;2022-11-27T17:51:18;10.33;;;8.00;;
36315;SDS011;22343;50.820;2.666;2022-11-27T17:54:03;9.73;;;7.50;;
36315;SDS011;22343;50.820;2.666;2022-11-27T17:56:49;9.63;;;8.07;;
36315;SDS011;22343;50.820;2.666;2022-11-27T17:59:35;10.23;;;8.00;;
36315;SDS011;22343;50.820;2.666;2022-11-27T18:02:21;9.63;;;7.83;;
36315;SDS011;22343;50.820;2.666;2022-11-27T18:05:06;9.83;;;7.73;;
36315;SDS011;22343;50.820;2.666;2022-11-27T18:07:53;8.90;;;7.67;;
36315;SDS011;22343;50.820;2.666;2022-11-27T18:10:39;10.27;;;7.93;;
36315;SDS011;22343;50.820;2.666;2022-11-27T18:13:24;12.40;;;9.37;;
36315;SDS011;22343;50.820;2.666;2022-11-27T18:16:18;10.70;;;8.20;;
36315;SDS011;22343;50.820;2.666;2022-11-27T18:19:06;10.17;;;8.03;;
36315;SDS011;22343;50.820;2.666;2022-11-27T18:21:52;8.97;;;8.00;;
36315;SDS011;22343;50.820;2.666;2022-11-27T18:24:37;8.70;;;7.50;;
36315;SDS011;22343;50.820;2.666;2022-11-27T18:27:26;8.60;;;7.27;;
36315;SDS011;22343;50.820;2.666;2022-11-27T18:30:12;11.13;;;9.13;;